sensor_id;sensor_type;location;lat;lon;timestamp;pressure;altitude;pressure_sealevel;temperature;humidity
76632;BME280;65526;48.578;-4.520;2023-03-23T00:01:19;99378.31;;;8.49;87.90
76632;BME280;65526;48.578;-4.520;2023-03-23T00:03:54;99591.28;;;9.87;88.14
76632;BME280;65526;48.578;-4.520;2023-03-23T00:06:25;99961.13;;;11.59;88.51
76632;BME280;65526;48.578;-4.520;2023-03-23T00:08:53;99088.47;;;6.63;88.48
76632;BME280;65526;48.578;-4.520;2023-03-23T00:11:27;99705.28;;;10.01;88.72
76632;BME280;65526;48.578;-4.520;2023-03-23T00:13:58;99207.94;;;7.41;88.48
76632;BME280;65526;48.578;-4.520;2023-03-23T00:16:30;99899.16;;;11.62;88.83
76632;BME280;65526;48.578;-4.520;2023-03-23T00:19:03;99281.88;;;7.86;88.63
76632;BME280;65526;48.578;-4.520;2023-03-23T00:21:40;99814.69;;;10.91;88.74
76632;BME280;65526;48.578;-4.520;2023-03-23T00:24:10;99417.63;;;8.58;88.59
76632;BME280;65526;48.578;-4.520;2023-03-23T00:26:38;99566.72;;;9.63;88.72
76632;BME280;65526;48.578;-4.520;2023-03-23T00:29:14;99740.41;;;10.62;89.16
76632;BME280;65526;48.578;-4.520;2023-03-23T00:31:42;99241.06;;;7.18;88.78
76632;BME280;65526;48.578;-4.520;2023-03-23T00:34:18;99557.03;;;9.53;88.93
76632;BME280;65526;48.578;-4.520;2023-03-23T00:36:53;99286.38;;;7.33;88.85
76632;BME280;65526;48.578;-4.520;2023-03-23T00:39:57;99400.59;;;8.33;89.02
76632;BME280;65526;48.578;-4.520;2023-03-23T00:42:27;99502.50;;;8.69;89.11
76632;BME280;65526;48.578;-4.520;2023-03-23T00:44:54;99947.88;;;11.49;89.26
76632;BME280;65526;48.578;-4.520;2023-03-23T00:47:26;99414.69;;;8.47;88.91
76632;BME280;65526;48.578;-4.520;2023-03-23T00:49:52;99420.22;;;8.47;88.54
76632;BME280;65526;48.578;-4.520;2023-03-23T00:52:22;99915.66;;;11.48;89.34
76632;BME280;65526;48.578;-4.520;2023-03-23T00:54:48;99520.66;;;8.86;88.97
76632;BME280;65526;48.578;-4.520;2023-03-23T00:57:15;99380.75;;;8.31;88.87
76632;BME280;65526;48.578;-4.520;2023-03-23T00:59:43;99897.34;;;11.47;89.47
76632;BME280;65526;48.578;-4.520;2023-03-23T01:02:09;99611.72;;;9.75;88.93
76632;BME280;65526;48.578;-4.520;2023-03-23T01:04:38;99809.03;;;10.84;89.32
76632;BME280;65526;48.578;-4.520;2023-03-23T01:07:05;99890.38;;;11.30;89.71
76632;BME280;65526;48.578;-4.520;2023-03-23T01:09:34;99391.97;;;8.19;89.17
76632;BME280;65526;48.578;-4.520;2023-03-23T01:12:02;99886.06;;;11.36;89.62
76632;BME280;65526;48.578;-4.520;2023-03-23T01:14:31;99461.34;;;8.68;89.04
76632;BME280;65526;48.578;-4.520;2023-03-23T01:16:58;99913.53;;;11.38;89.62
76632;BME280;65526;48.578;-4.520;2023-03-23T01:20:01;99879.72;;;11.36;89.21
76632;BME280;65526;48.578;-4.520;2023-03-23T01:22:32;99405.94;;;8.26;89.08
76632;BME280;65526;48.578;-4.520;2023-03-23T01:24:58;99876.13;;;11.35;89.49
76632;BME280;65526;48.578;-4.520;2023-03-23T01:27:25;99622.19;;;9.63;89.03
76632;BME280;65526;48.578;-4.520;2023-03-23T01:29:51;99809.66;;;10.74;89.19
76632;BME280;65526;48.578;-4.520;2023-03-23T01:32:17;99915.06;;;11.35;89.53
76632;BME280;65526;48.578;-4.520;2023-03-23T01:34:44;99656.69;;;9.65;88.92
76632;BME280;65526;48.578;-4.520;2023-03-23T01:37:11;99399.09;;;8.39;88.74
76632;BME280;65526;48.578;-4.520;2023-03-23T01:39:37;99913.66;;;11.48;89.50
76632;BME280;65526;48.578;-4.520;2023-03-23T01:42:04;99416.97;;;8.64;88.81
76632;BME280;65526;48.578;-4.520;2023-03-23T01:47:03;99618.88;;;9.53;88.93
76632;BME280;65526;48.578;-4.520;2023-03-23T01:49:34;99878.53;;;11.67;88.96
76632;BME280;65526;48.578;-4.520;2023-03-23T01:52:26;99485.13;;;8.92;88.33
76632;BME280;65526;48.578;-4.520;2023-03-23T01:54:58;99381.81;;;8.46;88.92
76632;BME280;65526;48.578;-4.520;2023-03-23T01:57:26;99769.72;;;10.86;89.44
76632;BME280;65526;48.578;-4.520;2023-03-23T01:59:56;99458.66;;;8.94;88.73
76632;BME280;65526;48.578;-4.520;2023-03-23T02:02:42;99104.22;;;6.82;88.71
76632;BME280;65526;48.578;-4.520;2023-03-23T02:05:24;99926.72;;;11.71;89.66
76632;BME280;65526;48.578;-4.520;2023-03-23T02:07:53;99385.81;;;8.71;89.17
76632;BME280;65526;48.578;-4.520;2023-03-23T02:10:21;99891.69;;;11.40;89.36
76632;BME280;65526;48.578;-4.520;2023-03-23T02:12:47;99607.13;;;9.86;89.26
76632;BME280;65526;48.578;-4.520;2023-03-23T02:15:14;99377.81;;;8.66;89.15
76632;BME280;65526;48.578;-4.520;2023-03-23T02:17:52;99913.19;;;11.73;89.64
76632;BME280;65526;48.578;-4.520;2023-03-23T02:20:48;99873.81;;;11.71;89.76
76632;BME280;65526;48.578;-4.520;2023-03-23T02:29:06;99866.19;;;11.64;90.18
76632;BME280;65526;48.578;-4.520;2023-03-23T02:34:32;99542.44;;;9.56;89.62
76632;BME280;65526;48.578;-4.520;2023-03-23T02:39:59;99269.00;;;7.32;89.51
76632;BME280;65526;48.578;-4.520;2023-03-23T02:42:34;99586.16;;;9.89;90.13
76632;BME280;65526;48.578;-4.520;2023-03-23T02:45:05;99491.16;;;8.97;90.24
76632;BME280;65526;48.578;-4.520;2023-03-23T02:47:35;99522.22;;;9.56;90.03
76632;BME280;65526;48.578;-4.520;2023-03-23T02:50:05;99244.84;;;7.29;89.94
76632;BME280;65526;48.578;-4.520;2023-03-23T02:52:32;99856.75;;;11.42;90.95
76632;BME280;65526;48.578;-4.520;2023-03-23T02:54:59;99397.56;;;8.64;90.54
76632;BME280;65526;48.578;-4.520;2023-03-23T02:57:27;99203.31;;;7.45;90.20
76632;BME280;65526;48.578;-4.520;2023-03-23T02:59:55;99358.19;;;8.52;90.45
76632;BME280;65526;48.578;-4.520;2023-03-23T03:02:25;99474.84;;;8.92;90.32
76632;BME280;65526;48.578;-4.520;2023-03-23T03:08:11;99514.63;;;9.52;90.60
76632;BME280;65526;48.578;-4.520;2023-03-23T03:11:02;99594.25;;;10.01;91.22
76632;BME280;65526;48.578;-4.520;2023-03-23T03:16:30;99811.16;;;11.50;90.73
76632;BME280;65526;48.578;-4.520;2023-03-23T03:19:12;99574.38;;;9.96;90.07
76632;BME280;65526;48.578;-4.520;2023-03-23T03:21:42;99301.31;;;7.89;90.26
76632;BME280;65526;48.578;-4.520;2023-03-23T03:24:13;99336.38;;;8.47;90.28
76632;BME280;65526;48.578;-4.520;2023-03-23T03:26:44;99881.91;;;11.53;90.73
76632;BME280;65526;48.578;-4.520;2023-03-23T03:29:36;99432.78;;;8.64;90.76
76632;BME280;65526;48.578;-4.520;2023-03-23T03:32:11;99284.41;;;8.17;90.48
76632;BME280;65526;48.578;-4.520;2023-03-23T03:34:39;99391.44;;;8.52;90.43
76632;BME280;65526;48.578;-4.520;2023-03-23T03:37:06;99048.81;;;6.71;90.16
76632;BME280;65526;48.578;-4.520;2023-03-23T03:39:35;99039.00;;;6.55;90.14
76632;BME280;65526;48.578;-4.520;2023-03-23T03:42:06;99482.38;;;9.41;90.31
76632;BME280;65526;48.578;-4.520;2023-03-23T03:44:33;99812.22;;;11.42;90.73
76632;BME280;65526;48.578;-4.520;2023-03-23T03:46:59;99804.72;;;11.46;90.70
76632;BME280;65526;48.578;-4.520;2023-03-23T03:49:26;99351.81;;;8.48;90.17
76632;BME280;65526;48.578;-4.520;2023-03-23T03:51:54;99555.22;;;9.90;90.49
76632;BME280;65526;48.578;-4.520;2023-03-23T03:54:25;99553.44;;;9.75;90.50
76632;BME280;65526;48.578;-4.520;2023-03-23T03:56:52;99566.50;;;9.75;90.21
76632;BME280;65526;48.578;-4.520;2023-03-23T03:59:41;99585.81;;;9.68;90.54
76632;BME280;65526;48.578;-4.520;2023-03-23T04:02:28;99679.06;;;9.99;90.37
76632;BME280;65526;48.578;-4.520;2023-03-23T04:04:55;99626.19;;;9.88;90.62
76632;BME280;65526;48.578;-4.520;2023-03-23T04:07:21;99345.41;;;8.44;90.22
76632;BME280;65526;48.578;-4.520;2023-03-23T04:09:52;99890.56;;;11.44;90.72
76632;BME280;65526;48.578;-4.520;2023-03-23T04:12:20;99881.78;;;11.42;90.73
76632;BME280;65526;48.578;-4.520;2023-03-23T04:14:52;99432.47;;;8.46;90.41
76632;BME280;65526;48.578;-4.520;2023-03-23T04:17:19;99110.34;;;6.72;90.13
76632;BME280;65526;48.578;-4.520;2023-03-23T04:19:46;99566.88;;;9.73;90.86
76632;BME280;65526;48.578;-4.520;2023-03-23T04:22:14;99394.81;;;8.42;90.60
76632;BME280;65526;48.578;-4.520;2023-03-23T04:24:43;99577.84;;;9.89;91.35
76632;BME280;65526;48.578;-4.520;2023-03-23T04:27:15;99628.41;;;9.79;91.02
76632;BME280;65526;48.578;-4.520;2023-03-23T04:29:42;99918.97;;;11.57;90.95
76632;BME280;65526;48.578;-4.520;2023-03-23T04:32:40;99051.97;;;6.73;90.51
76632;BME280;65526;48.578;-4.520;2023-03-23T04:35:10;99407.09;;;8.90;90.58
76632;BME280;65526;48.578;-4.520;2023-03-23T04:37:42;99870.53;;;11.65;91.24
76632;BME280;65526;48.578;-4.520;2023-03-23T04:40:11;99417.63;;;9.03;90.78
76632;BME280;65526;48.578;-4.520;2023-03-23T04:42:45;99642.03;;;10.37;90.69
76632;BME280;65526;48.578;-4.520;2023-03-23T04:45:26;98990.66;;;6.42;90.75
76632;BME280;65526;48.578;-4.520;2023-03-23T04:47:55;99415.28;;;9.05;90.69
76632;BME280;65526;48.578;-4.520;2023-03-23T04:50:34;99866.78;;;11.80;90.85
76632;BME280;65526;48.578;-4.520;2023-03-23T04:53:10;99384.53;;;9.14;90.53
76632;BME280;65526;48.578;-4.520;2023-03-23T04:55:37;99303.06;;;8.66;90.62
76632;BME280;65526;48.578;-4.520;2023-03-23T04:58:06;99286.22;;;8.52;90.46
76632;BME280;65526;48.578;-4.520;2023-03-23T05:00:38;99422.50;;;8.87;90.40
76632;BME280;65526;48.578;-4.520;2023-03-23T05:03:05;99543.84;;;9.96;90.53
76632;BME280;65526;48.578;-4.520;2023-03-23T05:05:34;99510.19;;;10.01;90.43
76632;BME280;65526;48.578;-4.520;2023-03-23T05:08:05;99424.88;;;9.11;90.13
76632;BME280;65526;48.578;-4.520;2023-03-23T05:10:36;99573.34;;;10.07;90.23
76632;BME280;65526;48.578;-4.520;2023-03-23T05:13:09;99046.97;;;7.02;89.92
76632;BME280;65526;48.578;-4.520;2023-03-23T05:15:36;99560.06;;;9.93;90.36
76632;BME280;65526;48.578;-4.520;2023-03-23T05:18:04;99815.47;;;11.78;90.53
76632;BME280;65526;48.578;-4.520;2023-03-23T05:20:32;99037.91;;;6.79;89.59
76632;BME280;65526;48.578;-4.520;2023-03-23T05:23:06;99435.94;;;9.34;90.11
76632;BME280;65526;48.578;-4.520;2023-03-23T05:25:36;99585.25;;;10.34;90.17
76632;BME280;65526;48.578;-4.520;2023-03-23T05:28:11;99068.72;;;7.03;89.38
76632;BME280;65526;48.578;-4.520;2023-03-23T05:30:44;99907.66;;;12.03;90.52
76632;BME280;65526;48.578;-4.520;2023-03-23T05:33:13;99796.75;;;11.45;90.27
76632;BME280;65526;48.578;-4.520;2023-03-23T05:35:46;99579.69;;;10.08;90.06
76632;BME280;65526;48.578;-4.520;2023-03-23T05:38:15;99414.19;;;8.87;89.66
76632;BME280;65526;48.578;-4.520;2023-03-23T05:40:43;99657.69;;;10.52;89.84
76632;BME280;65526;48.578;-4.520;2023-03-23T05:43:19;99867.56;;;12.11;90.53
76632;BME280;65526;48.578;-4.520;2023-03-23T05:46:09;99106.50;;;7.41;89.09
76632;BME280;65526;48.578;-4.520;2023-03-23T05:48:37;99382.03;;;9.05;89.73
76632;BME280;65526;48.578;-4.520;2023-03-23T05:51:05;99672.47;;;10.56;89.90
76632;BME280;65526;48.578;-4.520;2023-03-23T05:53:35;99862.28;;;12.02;90.09
76632;BME280;65526;48.578;-4.520;2023-03-23T05:56:01;99646.47;;;10.45;89.69
76632;BME280;65526;48.578;-4.520;2023-03-23T05:58:58;99563.50;;;10.13;89.76
76632;BME280;65526;48.578;-4.520;2023-03-23T06:01:27;99608.91;;;10.24;89.43
76632;BME280;65526;48.578;-4.520;2023-03-23T06:03:54;99372.19;;;9.08;89.32
76632;BME280;65526;48.578;-4.520;2023-03-23T06:06:29;99681.22;;;10.88;89.50
76632;BME280;65526;48.578;-4.520;2023-03-23T06:09:05;99839.25;;;12.05;89.84
76632;BME280;65526;48.578;-4.520;2023-03-23T06:11:45;99559.47;;;10.07;89.84
76632;BME280;65526;48.578;-4.520;2023-03-23T06:14:31;99528.97;;;9.58;89.33
76632;BME280;65526;48.578;-4.520;2023-03-23T06:16:59;99471.06;;;9.27;89.46
76632;BME280;65526;48.578;-4.520;2023-03-23T06:19:26;99610.53;;;10.55;89.51
76632;BME280;65526;48.578;-4.520;2023-03-23T06:22:07;99273.91;;;8.26;89.38
76632;BME280;65526;48.578;-4.520;2023-03-23T06:24:43;99368.75;;;8.92;89.39
76632;BME280;65526;48.578;-4.520;2023-03-23T06:27:11;99388.38;;;9.06;89.07
76632;BME280;65526;48.578;-4.520;2023-03-23T06:29:41;99662.31;;;10.41;89.44
76632;BME280;65526;48.578;-4.520;2023-03-23T06:32:10;99385.91;;;9.01;89.32
76632;BME280;65526;48.578;-4.520;2023-03-23T06:34:39;99626.44;;;10.28;89.74
76632;BME280;65526;48.578;-4.520;2023-03-23T06:37:38;99099.19;;;7.30;89.38
76632;BME280;65526;48.578;-4.520;2023-03-23T06:40:19;99560.88;;;9.98;90.00
76632;BME280;65526;48.578;-4.520;2023-03-23T06:42:52;99089.47;;;7.16;89.69
76632;BME280;65526;48.578;-4.520;2023-03-23T06:45:51;99891.22;;;11.94;89.93
76632;BME280;65526;48.578;-4.520;2023-03-23T06:48:45;99399.78;;;9.01;89.95
76632;BME280;65526;48.578;-4.520;2023-03-23T06:51:18;99557.38;;;10.01;90.01
76632;BME280;65526;48.578;-4.520;2023-03-23T06:53:48;99550.00;;;10.12;90.07
76632;BME280;65526;48.578;-4.520;2023-03-23T06:56:15;99337.09;;;8.93;90.02
76632;BME280;65526;48.578;-4.520;2023-03-23T06:58:42;99195.22;;;8.01;89.92
76632;BME280;65526;48.578;-4.520;2023-03-23T07:01:11;99842.41;;;12.04;90.45
76632;BME280;65526;48.578;-4.520;2023-03-23T07:03:43;99610.97;;;10.31;90.23
76632;BME280;65526;48.578;-4.520;2023-03-23T07:06:12;99586.97;;;10.46;90.28
76632;BME280;65526;48.578;-4.520;2023-03-23T07:08:47;99667.41;;;10.65;90.36
76632;BME280;65526;48.578;-4.520;2023-03-23T07:11:18;99123.53;;;7.66;89.87
76632;BME280;65526;48.578;-4.520;2023-03-23T07:13:45;99241.09;;;8.28;89.52
76632;BME280;65526;48.578;-4.520;2023-03-23T07:16:12;99365.06;;;9.10;90.26
76632;BME280;65526;48.578;-4.520;2023-03-23T07:18:39;99469.72;;;10.00;90.12
76632;BME280;65526;48.578;-4.520;2023-03-23T07:21:06;99073.28;;;7.38;89.82
76632;BME280;65526;48.578;-4.520;2023-03-23T07:23:33;99590.38;;;10.62;90.09
76632;BME280;65526;48.578;-4.520;2023-03-23T07:26:05;99489.56;;;9.72;90.13
76632;BME280;65526;48.578;-4.520;2023-03-23T07:28:45;99621.75;;;10.62;90.06
76632;BME280;65526;48.578;-4.520;2023-03-23T07:31:35;99564.66;;;10.68;89.68
76632;BME280;65526;48.578;-4.520;2023-03-23T07:34:02;99578.38;;;10.54;89.93
76632;BME280;65526;48.578;-4.520;2023-03-23T07:36:42;99230.72;;;8.71;89.59
76632;BME280;65526;48.578;-4.520;2023-03-23T07:39:09;99260.50;;;8.51;89.71
76632;BME280;65526;48.578;-4.520;2023-03-23T07:41:36;99340.06;;;9.33;89.72
76632;BME280;65526;48.578;-4.520;2023-03-23T07:44:14;99392.56;;;9.49;90.04
76632;BME280;65526;48.578;-4.520;2023-03-23T07:46:42;99397.59;;;9.40;89.74
76632;BME280;65526;48.578;-4.520;2023-03-23T07:49:12;99238.22;;;8.70;89.82
76632;BME280;65526;48.578;-4.520;2023-03-23T07:51:45;99343.56;;;9.30;89.63
76632;BME280;65526;48.578;-4.520;2023-03-23T07:54:14;99878.59;;;12.41;89.85
76632;BME280;65526;48.578;-4.520;2023-03-23T07:57:04;99836.44;;;12.42;90.05
76632;BME280;65526;48.578;-4.520;2023-03-23T07:59:37;99917.66;;;12.44;90.05
76632;BME280;65526;48.578;-4.520;2023-03-23T08:02:03;99749.59;;;11.56;89.38
76632;BME280;65526;48.578;-4.520;2023-03-23T08:04:48;99877.94;;;12.51;89.91
76632;BME280;65526;48.578;-4.520;2023-03-23T08:07:49;99826.09;;;12.43;90.02
76632;BME280;65526;48.578;-4.520;2023-03-23T08:10:54;99431.44;;;9.52;89.67
76632;BME280;65526;48.578;-4.520;2023-03-23T08:13:44;99618.44;;;11.20;89.83
76632;BME280;65526;48.578;-4.520;2023-03-23T08:16:29;99114.69;;;7.83;89.15
76632;BME280;65526;48.578;-4.520;2023-03-23T08:19:19;99483.72;;;10.07;89.38
76632;BME280;65526;48.578;-4.520;2023-03-23T08:21:45;99341.59;;;9.61;89.41
76632;BME280;65526;48.578;-4.520;2023-03-23T08:24:38;99592.97;;;11.18;89.49
76632;BME280;65526;48.578;-4.520;2023-03-23T08:27:24;99436.03;;;10.31;88.95
76632;BME280;65526;48.578;-4.520;2023-03-23T08:30:15;99543.25;;;11.09;89.04
76632;BME280;65526;48.578;-4.520;2023-03-23T08:33:00;99071.31;;;8.14;88.56
76632;BME280;65526;48.578;-4.520;2023-03-23T08:35:45;99206.59;;;9.01;88.61
76632;BME280;65526;48.578;-4.520;2023-03-23T08:38:32;99556.81;;;11.15;88.64
76632;BME280;65526;48.578;-4.520;2023-03-23T08:41:27;99164.19;;;8.38;88.38
76632;BME280;65526;48.578;-4.520;2023-03-23T08:44:05;99524.91;;;11.01;88.47
76632;BME280;65526;48.578;-4.520;2023-03-23T08:46:58;99667.59;;;11.86;88.19
76632;BME280;65526;48.578;-4.520;2023-03-23T08:49:42;99616.81;;;11.56;88.30
76632;BME280;65526;48.578;-4.520;2023-03-23T08:52:27;99384.00;;;10.24;88.22
76632;BME280;65526;48.578;-4.520;2023-03-23T08:55:13;99373.81;;;10.36;87.82
76632;BME280;65526;48.578;-4.520;2023-03-23T08:57:57;99780.97;;;12.78;87.74
76632;BME280;65526;48.578;-4.520;2023-03-23T09:00:48;99730.97;;;12.48;87.85
76632;BME280;65526;48.578;-4.520;2023-03-23T09:03:49;99411.38;;;10.26;87.35
76632;BME280;65526;48.578;-4.520;2023-03-23T09:06:22;99608.41;;;11.49;87.41
76632;BME280;65526;48.578;-4.520;2023-03-23T09:08:49;99896.44;;;13.17;87.83
76632;BME280;65526;48.578;-4.520;2023-03-23T09:11:16;99841.06;;;13.19;87.89
76632;BME280;65526;48.578;-4.520;2023-03-23T09:13:42;99480.16;;;10.36;87.79
76632;BME280;65526;48.578;-4.520;2023-03-23T09:16:09;99417.47;;;10.39;87.57
76632;BME280;65526;48.578;-4.520;2023-03-23T09:18:35;99273.88;;;9.65;87.31
76632;BME280;65526;48.578;-4.520;2023-03-23T09:21:06;99682.88;;;12.03;87.22
76632;BME280;65526;48.578;-4.520;2023-03-23T09:23:32;99629.50;;;11.53;87.21
76632;BME280;65526;48.578;-4.520;2023-03-23T09:26:01;99704.03;;;12.11;87.49
76632;BME280;65526;48.578;-4.520;2023-03-23T09:28:28;99895.25;;;13.22;87.43
76632;BME280;65526;48.578;-4.520;2023-03-23T09:30:55;99617.34;;;11.28;86.89
76632;BME280;65526;48.578;-4.520;2023-03-23T09:33:27;99822.53;;;12.97;87.19
76632;BME280;65526;48.578;-4.520;2023-03-23T09:35:55;99678.50;;;12.02;87.42
76632;BME280;65526;48.578;-4.520;2023-03-23T09:38:21;99871.03;;;13.33;86.94
76632;BME280;65526;48.578;-4.520;2023-03-23T09:43:58;99587.22;;;11.81;86.61
76632;BME280;65526;48.578;-4.520;2023-03-23T09:50:06;99821.22;;;13.42;86.91
76632;BME280;65526;48.578;-4.520;2023-03-23T09:52:33;99418.34;;;10.87;86.95
76632;BME280;65526;48.578;-4.520;2023-03-23T09:55:02;99248.09;;;9.61;86.98
76632;BME280;65526;48.578;-4.520;2023-03-23T09:57:40;99821.69;;;13.51;87.41
76632;BME280;65526;48.578;-4.520;2023-03-23T10:03:16;99533.97;;;11.86;87.10
76632;BME280;65526;48.578;-4.520;2023-03-23T10:05:48;99078.28;;;8.97;86.30
76632;BME280;65526;48.578;-4.520;2023-03-23T10:08:22;99679.84;;;12.84;86.49
76632;BME280;65526;48.578;-4.520;2023-03-23T10:11:03;99819.78;;;13.73;86.65
76632;BME280;65526;48.578;-4.520;2023-03-23T10:16:23;99596.19;;;12.08;86.32
76632;BME280;65526;48.578;-4.520;2023-03-23T10:18:59;99534.41;;;11.92;86.61
76632;BME280;65526;48.578;-4.520;2023-03-23T10:21:29;99669.72;;;12.55;86.71
76632;BME280;65526;48.578;-4.520;2023-03-23T10:24:01;99721.75;;;12.98;87.01
76632;BME280;65526;48.578;-4.520;2023-03-23T10:29:45;99418.84;;;10.55;86.57
76632;BME280;65526;48.578;-4.520;2023-03-23T10:32:20;99889.41;;;13.41;87.27
76632;BME280;65526;48.578;-4.520;2023-03-23T10:34:53;99519.09;;;11.65;87.16
76632;BME280;65526;48.578;-4.520;2023-03-23T10:37:22;99803.34;;;13.57;87.25
76632;BME280;65526;48.578;-4.520;2023-03-23T10:39:52;99567.84;;;11.96;87.01
76632;BME280;65526;48.578;-4.520;2023-03-23T10:42:31;99478.88;;;11.55;86.27
76632;BME280;65526;48.578;-4.520;2023-03-23T10:45:20;99375.28;;;10.66;86.28
76632;BME280;65526;48.578;-4.520;2023-03-23T10:48:09;99793.00;;;13.61;85.81
76632;BME280;65526;48.578;-4.520;2023-03-23T10:50:38;99066.41;;;8.97;85.85
76632;BME280;65526;48.578;-4.520;2023-03-23T10:53:15;99087.59;;;9.16;86.19
76632;BME280;65526;48.578;-4.520;2023-03-23T10:55:43;99313.72;;;10.64;86.25
76632;BME280;65526;48.578;-4.520;2023-03-23T10:58:22;99233.75;;;9.92;86.52
76632;BME280;65526;48.578;-4.520;2023-03-23T11:00:49;99403.59;;;11.30;86.55
76632;BME280;65526;48.578;-4.520;2023-03-23T11:05:53;99831.63;;;13.45;86.57
76632;BME280;65526;48.578;-4.520;2023-03-23T11:08:27;99591.69;;;11.93;86.90
76632;BME280;65526;48.578;-4.520;2023-03-23T11:11:11;99518.13;;;11.94;87.00
76632;BME280;65526;48.578;-4.520;2023-03-23T11:13:42;99191.97;;;9.38;86.76
76632;BME280;65526;48.578;-4.520;2023-03-23T11:16:10;99471.78;;;11.65;87.07
76632;BME280;65526;48.578;-4.520;2023-03-23T11:18:47;99563.97;;;12.14;87.32
76632;BME280;65526;48.578;-4.520;2023-03-23T11:21:14;99102.84;;;9.36;86.66
76632;BME280;65526;48.578;-4.520;2023-03-23T11:23:43;99518.50;;;11.93;87.29
76632;BME280;65526;48.578;-4.520;2023-03-23T11:26:26;99851.16;;;13.48;87.43
76632;BME280;65526;48.578;-4.520;2023-03-23T11:29:12;99790.53;;;13.42;87.97
76632;BME280;65526;48.578;-4.520;2023-03-23T11:31:43;99748.97;;;13.23;88.37
76632;BME280;65526;48.578;-4.520;2023-03-23T11:34:20;99653.13;;;12.14;87.83
76632;BME280;65526;48.578;-4.520;2023-03-23T11:36:53;99081.84;;;8.98;88.17
76632;BME280;65526;48.578;-4.520;2023-03-23T11:39:29;99314.81;;;10.49;88.37
76632;BME280;65526;48.578;-4.520;2023-03-23T11:42:00;99504.81;;;11.70;89.06
76632;BME280;65526;48.578;-4.520;2023-03-23T11:44:35;99493.63;;;11.63;89.50
76632;BME280;65526;48.578;-4.520;2023-03-23T11:50:24;99279.31;;;10.28;89.75
76632;BME280;65526;48.578;-4.520;2023-03-23T11:58:20;99282.47;;;10.27;90.38
76632;BME280;65526;48.578;-4.520;2023-03-23T12:00:58;99588.53;;;11.95;90.55
76632;BME280;65526;48.578;-4.520;2023-03-23T12:12:12;99730.44;;;12.86;90.18
76632;BME280;65526;48.578;-4.520;2023-03-23T12:31:27;99678.97;;;12.73;90.23
76632;BME280;65526;48.578;-4.520;2023-03-23T12:42:33;99415.66;;;10.97;89.86
76632;BME280;65526;48.578;-4.520;2023-03-23T12:45:21;99212.84;;;9.62;89.44
76632;BME280;65526;48.578;-4.520;2023-03-23T12:48:01;98947.19;;;8.16;89.40
76632;BME280;65526;48.578;-4.520;2023-03-23T12:50:33;99488.31;;;10.96;89.58
76632;BME280;65526;48.578;-4.520;2023-03-23T12:53:13;99506.31;;;11.09;89.37
76632;BME280;65526;48.578;-4.520;2023-03-23T12:56:04;99666.81;;;12.41;89.80
76632;BME280;65526;48.578;-4.520;2023-03-23T12:58:40;99712.59;;;12.40;89.87
76632;BME280;65526;48.578;-4.520;2023-03-23T13:01:25;99384.03;;;10.68;90.02
76632;BME280;65526;48.578;-4.520;2023-03-23T13:03:56;99631.72;;;12.29;90.34
76632;BME280;65526;48.578;-4.520;2023-03-23T13:06:49;99197.94;;;9.40;90.09
76632;BME280;65526;48.578;-4.520;2023-03-23T13:11:50;99193.06;;;9.30;90.35
76632;BME280;65526;48.578;-4.520;2023-03-23T13:17:20;99584.38;;;12.29;91.56
76632;BME280;65526;48.578;-4.520;2023-03-23T13:20:31;99572.00;;;12.26;91.63
76632;BME280;65526;48.578;-4.520;2023-03-23T13:23:01;99168.19;;;9.74;91.77
76632;BME280;65526;48.578;-4.520;2023-03-23T13:28:02;99252.81;;;10.38;91.68
76632;BME280;65526;48.578;-4.520;2023-03-23T13:30:30;99045.16;;;9.08;91.41
76632;BME280;65526;48.578;-4.520;2023-03-23T13:33:06;99383.66;;;11.18;91.67
76632;BME280;65526;48.578;-4.520;2023-03-23T13:35:43;99594.34;;;12.30;91.79
76632;BME280;65526;48.578;-4.520;2023-03-23T13:38:24;98742.22;;;7.21;91.19
76632;BME280;65526;48.578;-4.520;2023-03-23T13:40:53;99156.16;;;9.59;92.21
76632;BME280;65526;48.578;-4.520;2023-03-23T13:43:32;99012.25;;;9.03;91.95
76632;BME280;65526;48.578;-4.520;2023-03-23T13:46:24;98702.31;;;7.14;91.84
76632;BME280;65526;48.578;-4.520;2023-03-23T13:56:59;98812.38;;;7.76;92.10
76632;BME280;65526;48.578;-4.520;2023-03-23T14:01:56;98654.00;;;6.68;92.74
76632;BME280;65526;48.578;-4.520;2023-03-23T14:04:31;98743.88;;;7.59;92.48
76632;BME280;65526;48.578;-4.520;2023-03-23T14:07:09;98952.91;;;9.07;92.83
76632;BME280;65526;48.578;-4.520;2023-03-23T14:09:41;98773.91;;;7.97;92.65
76632;BME280;65526;48.578;-4.520;2023-03-23T14:12:18;99055.56;;;9.66;92.93
76632;BME280;65526;48.578;-4.520;2023-03-23T14:14:49;98802.19;;;7.80;93.00
76632;BME280;65526;48.578;-4.520;2023-03-23T14:17:24;98756.50;;;7.96;93.21
76632;BME280;65526;48.578;-4.520;2023-03-23T14:19:57;99224.53;;;10.77;93.45
76632;BME280;65526;48.578;-4.520;2023-03-23T14:22:42;99251.94;;;10.85;93.61
76632;BME280;65526;48.578;-4.520;2023-03-23T14:25:12;99214.25;;;10.84;94.00
76632;BME280;65526;48.578;-4.520;2023-03-23T14:27:39;98899.16;;;8.31;93.10
76632;BME280;65526;48.578;-4.520;2023-03-23T14:30:15;99351.31;;;11.68;93.43
76632;BME280;65526;48.578;-4.520;2023-03-23T14:32:42;99292.66;;;11.15;93.43
76632;BME280;65526;48.578;-4.520;2023-03-23T14:35:36;99445.50;;;12.42;93.75
76632;BME280;65526;48.578;-4.520;2023-03-23T14:38:21;98928.22;;;8.92;93.09
76632;BME280;65526;48.578;-4.520;2023-03-23T14:40:50;98742.66;;;7.93;92.89
76632;BME280;65526;48.578;-4.520;2023-03-23T14:43:19;98853.19;;;8.63;92.35
76632;BME280;65526;48.578;-4.520;2023-03-23T14:45:51;99488.53;;;12.44;93.03
76632;BME280;65526;48.578;-4.520;2023-03-23T14:48:20;99501.28;;;12.45;93.01
76632;BME280;65526;48.578;-4.520;2023-03-23T14:50:57;99043.16;;;10.11;91.83
76632;BME280;65526;48.578;-4.520;2023-03-23T14:53:37;99467.03;;;12.45;91.91
76632;BME280;65526;48.578;-4.520;2023-03-23T14:56:13;99161.41;;;10.81;91.26
76632;BME280;65526;48.578;-4.520;2023-03-23T14:58:45;99045.19;;;10.14;90.65
76632;BME280;65526;48.578;-4.520;2023-03-23T15:01:25;99432.78;;;12.37;90.92
76632;BME280;65526;48.578;-4.520;2023-03-23T15:04:08;99001.16;;;9.47;90.29
76632;BME280;65526;48.578;-4.520;2023-03-23T15:06:39;99153.81;;;10.63;90.53
76632;BME280;65526;48.578;-4.520;2023-03-23T15:09:18;98891.16;;;9.10;90.00
76632;BME280;65526;48.578;-4.520;2023-03-23T15:11:58;98756.78;;;8.28;89.90